createdAt,value
2022-12-03T00:02:24.467Z,25.92
2022-12-03T00:04:52.062Z,29.52
2022-12-03T00:07:19.472Z,28.75
2022-12-03T00:09:46.708Z,33.60
2022-12-03T00:12:13.967Z,27.63
2022-12-03T00:14:44.647Z,31.38
2022-12-03T00:17:12.316Z,26.85
2022-12-03T00:19:39.659Z,32.22
2022-12-03T00:22:06.918Z,28.88
2022-12-03T00:24:34.181Z,33.22
2022-12-03T00:27:01.438Z,27.92
2022-12-03T00:29:28.688Z,29.50
2022-12-03T00:31:55.887Z,35.80
2022-12-03T00:34:26.383Z,28.75
2022-12-03T00:36:53.669Z,33.97
2022-12-03T00:39:20.900Z,35.40
2022-12-03T00:41:48.173Z,32.63
2022-12-03T00:44:15.518Z,31.33
2022-12-03T00:46:42.788Z,28.45
2022-12-03T00:49:10.134Z,31.17
2022-12-03T00:51:37.350Z,30.50
2022-12-03T00:54:04.592Z,27.00
2022-12-03T00:56:31.846Z,30.63
2022-12-03T00:58:59.066Z,30.90
2022-12-03T01:01:26.594Z,28.73
2022-12-03T01:03:53.880Z,29.55
2022-12-03T01:06:21.098Z,30.58
2022-12-03T01:08:48.327Z,25.95
2022-12-03T01:11:34.137Z,25.55
2022-12-03T01:14:01.766Z,24.80
2022-12-03T01:16:29.041Z,27.02
2022-12-03T01:18:56.368Z,29.90
2022-12-03T01:21:23.612Z,18.70
2022-12-03T01:23:50.876Z,25.80
2022-12-03T01:26:18.105Z,24.08
2022-12-03T01:28:45.341Z,23.98
2022-12-03T01:31:34.052Z,24.17
2022-12-03T01:34:01.402Z,20.10
2022-12-03T01:36:28.707Z,25.13
2022-12-03T01:38:55.961Z,24.48
2022-12-03T01:41:24.539Z,21.08
2022-12-03T01:43:52.723Z,21.92
2022-12-03T01:46:22.052Z,19.83
2022-12-03T01:48:50.209Z,17.92
2022-12-03T01:51:17.575Z,15.30
2022-12-03T01:53:45.183Z,19.95
2022-12-03T01:56:16.215Z,15.52
2022-12-03T01:58:43.764Z,17.15
2022-12-03T02:01:13.324Z,16.60
2022-12-03T02:03:40.734Z,14.25
2022-12-03T02:06:18.848Z,13.55
2022-12-03T02:08:46.951Z,17.52
2022-12-03T02:11:17.238Z,14.55
2022-12-03T02:13:45.025Z,18.98
2022-12-03T02:16:12.371Z,14.80
2022-12-03T02:18:39.897Z,15.30
2022-12-03T02:21:25.976Z,14.13
2022-12-03T02:24:02.386Z,14.88
2022-12-03T02:26:29.956Z,14.65
2022-12-03T02:28:57.700Z,14.25
2022-12-03T02:31:25.102Z,11.93
2022-12-03T02:33:52.504Z,13.23
2022-12-03T02:36:19.783Z,14.50
2022-12-03T02:38:48.451Z,13.55
2022-12-03T02:41:37.318Z,14.60
2022-12-03T02:44:05.660Z,13.40
2022-12-03T02:46:33.521Z,11.93
2022-12-03T02:49:01.125Z,14.30
2022-12-03T02:51:28.584Z,13.68
2022-12-03T02:53:56.601Z,15.95
2022-12-03T02:56:25.456Z,12.32
2022-12-03T02:58:55.303Z,15.38
2022-12-03T03:01:22.647Z,16.83
2022-12-03T03:03:50.179Z,17.77
2022-12-03T03:06:18.721Z,17.73
2022-12-03T03:08:46.126Z,13.95
2022-12-03T03:11:13.460Z,15.30
2022-12-03T03:13:40.855Z,14.48
2022-12-03T03:16:09.040Z,15.95
2022-12-03T03:18:36.961Z,16.50
2022-12-03T03:21:04.830Z,18.10
2022-12-03T03:23:32.229Z,17.73
2022-12-03T03:25:59.504Z,18.73
2022-12-03T03:28:27.443Z,16.73
2022-12-03T03:30:54.818Z,20.27
2022-12-03T03:33:22.329Z,15.52
2022-12-03T03:35:49.978Z,18.00
2022-12-03T03:38:19.174Z,18.25
2022-12-03T03:40:47.307Z,21.88
2022-12-03T03:43:14.698Z,17.77
2022-12-03T03:45:42.429Z,22.70
2022-12-03T03:48:09.770Z,17.10
2022-12-03T03:50:37.252Z,18.60
2022-12-03T03:53:05.226Z,12.45
2022-12-03T03:55:32.845Z,14.63
2022-12-03T03:58:00.340Z,19.05
2022-12-03T04:00:27.798Z,17.65
2022-12-03T04:02:55.054Z,14.27
2022-12-03T04:05:23.017Z,16.35
2022-12-03T04:07:50.338Z,14.00
2022-12-03T04:10:36.209Z,15.32
2022-12-03T04:13:03.455Z,12.05
2022-12-03T04:15:30.750Z,14.65
2022-12-03T04:18:16.541Z,15.07
2022-12-03T04:20:43.879Z,11.85
2022-12-03T04:23:11.120Z,10.93
2022-12-03T04:25:57.331Z,12.13
2022-12-03T04:28:43.153Z,9.60
2022-12-03T04:31:29.438Z,11.57
2022-12-03T04:34:15.620Z,9.10
2022-12-03T04:36:42.878Z,11.68
2022-12-03T04:39:10.107Z,9.82
2022-12-03T04:41:37.348Z,13.32
2022-12-03T04:44:23.168Z,10.77
2022-12-03T04:46:50.366Z,11.70
2022-12-03T04:49:17.600Z,10.65
2022-12-03T04:51:44.888Z,10.38
2022-12-03T04:54:12.257Z,9.95
2022-12-03T04:56:39.485Z,10.50
2022-12-03T04:59:10.045Z,9.57
2022-12-03T05:01:40.070Z,9.93
2022-12-03T05:04:07.738Z,10.98
2022-12-03T05:06:34.981Z,8.80
2022-12-03T05:09:02.228Z,11.23
2022-12-03T05:11:29.482Z,9.23
2022-12-03T05:13:56.832Z,11.40
2022-12-03T05:16:24.105Z,9.85
2022-12-03T05:18:51.397Z,12.93
2022-12-03T05:21:18.622Z,10.30
2022-12-03T05:23:45.889Z,9.18
2022-12-03T05:26:13.137Z,9.93
2022-12-03T05:28:40.385Z,12.15
2022-12-03T05:31:07.779Z,9.98
2022-12-03T05:33:39.475Z,10.15
2022-12-03T05:36:10.322Z,8.27
2022-12-03T05:38:37.639Z,9.57
2022-12-03T05:41:24.878Z,8.63
2022-12-03T05:43:52.120Z,6.45
2022-12-03T05:46:19.571Z,7.32
2022-12-03T05:48:46.910Z,8.95
2022-12-03T05:51:14.158Z,6.10
2022-12-03T05:53:41.404Z,6.20
2022-12-03T05:56:08.748Z,6.50
2022-12-03T05:58:36.060Z,9.13
2022-12-03T06:01:03.275Z,8.00
2022-12-03T06:03:30.741Z,6.18
2022-12-03T06:05:58.147Z,7.57
2022-12-03T06:08:25.433Z,6.38
2022-12-03T06:10:52.718Z,8.65
2022-12-03T06:13:20.152Z,6.70
2022-12-03T06:15:47.479Z,7.20
2022-12-03T06:18:14.818Z,7.30
2022-12-03T06:20:42.091Z,7.55
2022-12-03T06:23:09.433Z,8.45
2022-12-03T06:25:36.910Z,6.63
2022-12-03T06:28:04.227Z,7.10
2022-12-03T06:30:31.473Z,8.10
2022-12-03T06:32:58.732Z,7.07
2022-12-03T06:35:25.968Z,9.98
2022-12-03T06:37:53.266Z,7.70
2022-12-03T06:40:20.560Z,9.20
2022-12-03T06:42:47.778Z,8.30
2022-12-03T06:45:15.018Z,8.05
2022-12-03T06:47:42.282Z,7.38
2022-12-03T06:50:09.652Z,6.55
2022-12-03T06:52:37.147Z,9.55
2022-12-03T06:55:04.510Z,10.02
2022-12-03T06:57:31.778Z,9.63
2022-12-03T06:59:59.114Z,8.02
2022-12-03T07:02:26.479Z,7.30
2022-12-03T07:04:54.176Z,8.80
2022-12-03T07:07:21.801Z,10.52
2022-12-03T07:09:49.086Z,9.05
2022-12-03T07:12:16.345Z,8.55
2022-12-03T07:14:43.681Z,9.85
2022-12-03T07:17:10.937Z,13.15
2022-12-03T07:19:38.177Z,8.95
2022-12-03T07:22:05.398Z,11.02
2022-12-03T07:24:32.724Z,10.30
2022-12-03T07:26:59.937Z,9.38
2022-12-03T07:29:27.252Z,9.80
2022-12-03T07:31:54.627Z,9.25
2022-12-03T07:34:21.869Z,11.95
2022-12-03T07:36:49.140Z,13.63
2022-12-03T07:39:16.440Z,13.27
2022-12-03T07:41:43.684Z,13.55
2022-12-03T07:44:14.602Z,16.23
2022-12-03T07:46:42.576Z,14.77
2022-12-03T07:49:09.916Z,15.65
2022-12-03T07:51:37.247Z,17.15
2022-12-03T07:54:04.723Z,17.00
2022-12-03T07:56:31.952Z,16.67
2022-12-03T07:58:59.199Z,19.55
2022-12-03T08:01:26.579Z,16.20
2022-12-03T08:03:53.976Z,19.83
2022-12-03T08:06:21.209Z,21.20
2022-12-03T08:08:48.456Z,19.42
2022-12-03T08:11:15.954Z,19.70
2022-12-03T08:13:43.207Z,19.67
2022-12-03T08:16:20.795Z,22.52
2022-12-03T08:18:48.666Z,20.08
2022-12-03T08:21:17.657Z,22.67
2022-12-03T08:23:45.058Z,23.42
2022-12-03T08:26:15.357Z,23.55
2022-12-03T08:28:43.008Z,20.70
2022-12-03T08:31:13.801Z,22.70
2022-12-03T08:33:41.949Z,22.73
2022-12-03T08:36:09.444Z,22.25
2022-12-03T08:38:36.752Z,19.95
2022-12-03T08:41:04.056Z,25.02
2022-12-03T08:43:33.181Z,22.85
2022-12-03T08:46:00.568Z,26.73
2022-12-03T08:48:42.786Z,25.48
2022-12-03T08:51:25.636Z,22.35
2022-12-03T08:54:01.099Z,23.48
2022-12-03T08:56:29.822Z,27.50
2022-12-03T08:58:59.333Z,23.17
2022-12-03T09:01:32.845Z,24.95
2022-12-03T09:04:06.394Z,26.17
2022-12-03T09:06:33.741Z,24.75
2022-12-03T09:09:06.357Z,21.95
2022-12-03T09:11:34.148Z,26.30
2022-12-03T09:14:01.948Z,31.15
2022-12-03T09:16:29.212Z,26.88
2022-12-03T09:18:56.484Z,23.75
2022-12-03T09:21:23.718Z,26.45
2022-12-03T09:23:50.937Z,28.38
2022-12-03T09:26:18.179Z,21.10
2022-12-03T09:28:46.445Z,26.50
2022-12-03T09:31:13.746Z,31.13
2022-12-03T09:33:40.986Z,26.80
2022-12-03T09:36:08.338Z,30.80
2022-12-03T09:38:35.664Z,28.50
2022-12-03T09:41:03.002Z,28.42
2022-12-03T09:44:02.888Z,30.33
2022-12-03T09:46:19.605Z,26.45
2022-12-03T09:48:47.256Z,29.63
2022-12-03T09:51:15.182Z,28.98
2022-12-03T09:53:42.488Z,29.63
2022-12-03T09:56:13.087Z,32.10
2022-12-03T09:58:40.457Z,29.48
2022-12-03T10:01:11.527Z,27.85
2022-12-03T10:03:40.096Z,30.80
2022-12-03T10:06:07.589Z,29.75
2022-12-03T10:08:34.874Z,32.35
2022-12-03T10:11:02.177Z,28.23
2022-12-03T10:13:30.719Z,28.25
2022-12-03T10:15:59.254Z,32.88
2022-12-03T10:18:30.834Z,29.65
2022-12-03T10:20:58.565Z,30.27
2022-12-03T10:23:27.132Z,34.42
2022-12-03T10:25:54.562Z,32.53
2022-12-03T10:28:48.043Z,30.27
2022-12-03T10:31:15.625Z,33.50
2022-12-03T10:33:44.960Z,27.23
2022-12-03T10:36:18.191Z,36.45
2022-12-03T10:38:45.487Z,28.23
2022-12-03T10:41:39.208Z,27.30
2022-12-03T10:44:12.515Z,27.90
2022-12-03T10:46:39.929Z,33.33
2022-12-03T10:49:17.589Z,31.55
2022-12-03T10:51:45.984Z,32.20
2022-12-03T10:54:23.782Z,29.58
2022-12-03T10:56:52.310Z,29.60
2022-12-03T10:59:21.668Z,28.98
2022-12-03T11:01:49.431Z,28.27
2022-12-03T11:04:34.049Z,29.92
2022-12-03T11:07:02.973Z,28.98
2022-12-03T11:09:31.942Z,25.30
2022-12-03T11:12:08.726Z,34.03
2022-12-03T11:14:56.853Z,29.70
2022-12-03T11:17:40.800Z,31.95
2022-12-03T11:20:11.828Z,30.55
2022-12-03T11:22:40.803Z,27.25
2022-12-03T11:25:28.367Z,30.77
2022-12-03T11:28:13.884Z,29.52
2022-12-03T11:31:01.487Z,30.40
2022-12-03T11:33:33.119Z,33.47
2022-12-03T11:36:06.187Z,27.25
2022-12-03T11:38:47.344Z,28.92
2022-12-03T11:41:18.066Z,32.45
2022-12-03T11:43:56.891Z,36.47
2022-12-03T11:46:25.607Z,32.22
2022-12-03T11:48:54.165Z,37.95
2022-12-03T11:51:23.077Z,36.67
2022-12-03T11:53:51.148Z,35.22
2022-12-03T11:56:20.135Z,36.28
2022-12-03T11:58:48.361Z,31.90
2022-12-03T12:01:16.526Z,36.35
2022-12-03T12:03:48.352Z,34.45
2022-12-03T12:06:20.589Z,35.55
2022-12-03T12:08:50.575Z,42.38
2022-12-03T12:11:18.741Z,31.85
2022-12-03T12:13:45.986Z,37.78
2022-12-03T12:16:13.396Z,45.83
2022-12-03T12:18:44.521Z,33.45
2022-12-03T12:21:30.918Z,33.55
2022-12-03T12:23:58.131Z,38.22
2022-12-03T12:26:25.389Z,36.35
2022-12-03T12:28:52.611Z,33.67
2022-12-03T12:31:19.918Z,35.10
2022-12-03T12:33:47.219Z,40.60
2022-12-03T12:36:14.764Z,33.92
2022-12-03T12:38:42.605Z,35.40
2022-12-03T12:41:10.857Z,35.63
2022-12-03T12:43:39.626Z,35.53
2022-12-03T12:46:45.945Z,38.58
2022-12-03T12:49:01.322Z,38.00
2022-12-03T12:51:28.628Z,32.10
2022-12-03T12:53:58.012Z,36.88
2022-12-03T12:56:32.129Z,33.17
2022-12-03T12:59:02.152Z,36.00
2022-12-03T13:01:30.713Z,35.00
2022-12-03T13:03:58.394Z,33.78
2022-12-03T13:06:29.555Z,37.17
2022-12-03T13:08:57.507Z,33.30
2022-12-03T13:11:45.868Z,39.28
2022-12-03T13:14:18.988Z,34.35
2022-12-03T13:16:47.944Z,33.95
2022-12-03T13:19:25.486Z,37.28
2022-12-03T13:21:54.613Z,38.97
2022-12-03T13:24:33.995Z,38.30
2022-12-03T13:27:05.935Z,32.95
2022-12-03T13:29:33.186Z,32.03
2022-12-03T13:32:00.847Z,36.08
2022-12-03T13:34:29.572Z,34.65
2022-12-03T13:36:58.443Z,31.95
2022-12-03T13:39:29.153Z,36.80
2022-12-03T13:42:15.340Z,31.30
2022-12-03T13:44:45.132Z,33.42
2022-12-03T13:47:14.636Z,54.20
2022-12-03T13:49:41.956Z,35.13
2022-12-03T13:52:13.809Z,35.17
2022-12-03T13:54:41.140Z,37.22
2022-12-03T13:57:08.342Z,33.30
2022-12-03T13:59:35.833Z,35.25
2022-12-03T14:02:03.257Z,34.50
2022-12-03T14:04:30.509Z,35.75
2022-12-03T14:06:57.708Z,33.58
2022-12-03T14:09:24.955Z,33.13
2022-12-03T14:12:10.785Z,32.05
2022-12-03T14:14:38.034Z,30.42
2022-12-03T14:17:05.284Z,31.98
2022-12-03T14:19:32.892Z,32.47
2022-12-03T14:22:00.379Z,33.55
2022-12-03T14:24:27.870Z,31.23
2022-12-03T14:26:55.085Z,36.30
2022-12-03T14:29:22.318Z,34.58
2022-12-03T14:31:49.548Z,34.63
2022-12-03T14:34:16.837Z,39.10
2022-12-03T14:36:44.448Z,32.58
2022-12-03T14:39:11.774Z,34.03
2022-12-03T14:41:57.550Z,38.17
2022-12-03T14:44:25.561Z,40.65
2022-12-03T14:46:56.806Z,38.22
2022-12-03T14:49:24.854Z,34.55
2022-12-03T14:51:52.149Z,36.90
2022-12-03T14:54:19.394Z,33.17
2022-12-03T14:56:46.631Z,34.88
2022-12-03T14:59:13.855Z,34.75
2022-12-03T15:01:41.169Z,29.83
2022-12-03T15:04:08.532Z,34.85
2022-12-03T15:06:35.815Z,33.67
2022-12-03T15:09:03.336Z,33.63
2022-12-03T15:11:30.627Z,34.85
2022-12-03T15:13:58.050Z,41.25
2022-12-03T15:16:25.429Z,34.97
2022-12-03T15:18:52.756Z,33.67
2022-12-03T15:21:20.036Z,38.00
2022-12-03T15:23:47.289Z,39.90
2022-12-03T15:26:14.710Z,38.60
2022-12-03T15:28:46.675Z,35.58
2022-12-03T15:31:15.584Z,41.60
2022-12-03T15:33:42.813Z,40.90
2022-12-03T15:36:10.508Z,42.78
2022-12-03T15:38:37.739Z,38.35
2022-12-03T15:41:21.580Z,38.78
2022-12-03T15:43:49.129Z,40.95
2022-12-03T15:46:16.423Z,39.92
2022-12-03T15:48:43.860Z,39.58
2022-12-03T15:51:11.125Z,40.13
2022-12-03T15:53:38.676Z,45.85
2022-12-03T15:56:05.986Z,37.92
2022-12-03T15:58:33.219Z,42.00
2022-12-03T16:01:00.476Z,37.92
2022-12-03T16:03:27.815Z,45.20
2022-12-03T16:05:55.182Z,49.85
2022-12-03T16:08:22.691Z,43.17
2022-12-03T16:10:50.057Z,42.10
2022-12-03T16:13:17.261Z,43.08
2022-12-03T16:15:44.978Z,49.03
2022-12-03T16:18:12.242Z,45.00
2022-12-03T16:20:39.478Z,49.63
2022-12-03T16:23:06.751Z,40.08
2022-12-03T16:25:34.050Z,53.08
2022-12-03T16:28:01.319Z,47.38
2022-12-03T16:30:28.601Z,46.08
2022-12-03T16:32:55.841Z,46.50
2022-12-03T16:35:23.110Z,47.22
2022-12-03T16:37:50.315Z,45.75
2022-12-03T16:40:17.564Z,43.20
2022-12-03T16:42:44.753Z,42.20
2022-12-03T16:45:12.015Z,48.67
2022-12-03T16:47:39.288Z,44.85
2022-12-03T16:50:08.124Z,46.40
2022-12-03T16:52:35.951Z,41.67
2022-12-03T16:55:03.277Z,40.08
2022-12-03T16:57:33.817Z,40.75
2022-12-03T17:00:01.736Z,43.28
2022-12-03T17:02:29.324Z,45.88
2022-12-03T17:04:56.635Z,49.70
2022-12-03T17:07:23.883Z,42.92
2022-12-03T17:09:51.241Z,44.28
2022-12-03T17:12:18.611Z,50.05
2022-12-03T17:14:45.934Z,49.13
2022-12-03T17:17:13.166Z,50.33
2022-12-03T17:19:40.402Z,43.20
2022-12-03T17:22:07.824Z,47.45
2022-12-03T17:24:35.062Z,44.53
2022-12-03T17:27:02.342Z,42.47
2022-12-03T17:29:29.567Z,45.13
2022-12-03T17:31:56.886Z,49.58
2022-12-03T17:34:24.182Z,43.00
2022-12-03T17:36:51.443Z,41.70
2022-12-03T17:39:18.649Z,38.22
2022-12-03T17:41:45.932Z,43.67
2022-12-03T17:44:17.969Z,44.67
2022-12-03T17:46:48.186Z,44.28
2022-12-03T17:49:15.386Z,46.72
2022-12-03T17:51:42.822Z,45.95
2022-12-03T17:54:10.034Z,44.38
2022-12-03T17:56:39.338Z,41.95
2022-12-03T17:59:06.558Z,41.08
2022-12-03T18:01:33.855Z,44.00
2022-12-03T18:04:01.152Z,44.53
2022-12-03T18:06:28.651Z,44.85
2022-12-03T18:08:55.907Z,37.58
2022-12-03T18:11:23.156Z,40.85
2022-12-03T18:13:50.380Z,39.17
2022-12-03T18:16:17.908Z,34.65
2022-12-03T18:18:45.133Z,38.65
2022-12-03T18:21:12.625Z,32.78
2022-12-03T18:23:40.264Z,41.08
2022-12-03T18:26:07.510Z,40.88
2022-12-03T18:28:34.802Z,49.53
2022-12-03T18:31:02.108Z,45.78
2022-12-03T18:33:29.508Z,46.80
2022-12-03T18:35:57.814Z,38.80
2022-12-03T18:38:28.236Z,40.33
2022-12-03T18:40:57.004Z,39.88
2022-12-03T18:43:24.435Z,44.65
2022-12-03T18:45:51.659Z,36.40
2022-12-03T18:48:20.019Z,50.33
2022-12-03T18:50:47.711Z,47.45
2022-12-03T18:53:19.450Z,47.13
2022-12-03T18:55:47.706Z,45.30
2022-12-03T18:58:15.116Z,42.80
2022-12-03T19:00:42.782Z,43.80
2022-12-03T19:03:10.842Z,36.70
2022-12-03T19:05:38.146Z,40.03
2022-12-03T19:08:14.053Z,43.90
2022-12-03T19:10:42.304Z,38.38
2022-12-03T19:13:10.053Z,51.45
2022-12-03T19:15:38.352Z,42.83
2022-12-03T19:18:07.645Z,37.85
2022-12-03T19:20:34.946Z,43.88
2022-12-03T19:23:02.362Z,44.88
2022-12-03T19:25:29.664Z,43.42
2022-12-03T19:27:57.191Z,31.67
2022-12-03T19:30:24.412Z,36.70
2022-12-03T19:32:51.908Z,43.03
2022-12-03T19:35:21.458Z,39.22
2022-12-03T19:37:49.709Z,36.15
2022-12-03T19:40:17.224Z,31.08
2022-12-03T19:42:44.558Z,36.40
2022-12-03T19:45:12.065Z,34.65
2022-12-03T19:47:39.447Z,32.13
2022-12-03T19:50:07.129Z,30.25
2022-12-03T19:52:36.470Z,35.80
2022-12-03T19:55:03.969Z,37.50
2022-12-03T19:57:31.224Z,39.40
2022-12-03T19:59:58.542Z,36.33
2022-12-03T20:02:26.085Z,32.60
2022-12-03T20:04:53.481Z,33.35
2022-12-03T20:07:23.609Z,30.25
2022-12-03T20:09:51.970Z,31.52
2022-12-03T20:12:19.593Z,33.58
2022-12-03T20:14:47.076Z,33.22
2022-12-03T20:17:14.327Z,30.90
2022-12-03T20:19:41.615Z,30.45
2022-12-03T20:22:08.909Z,29.33
2022-12-03T20:24:36.196Z,27.08
2022-12-03T20:27:03.481Z,27.42
2022-12-03T20:29:30.732Z,33.95
2022-12-03T20:31:58.070Z,33.50
2022-12-03T20:34:25.433Z,30.58
2022-12-03T20:36:52.707Z,29.75
2022-12-03T20:39:20.007Z,28.83
2022-12-03T20:41:47.326Z,32.92
2022-12-03T20:44:14.557Z,33.53
2022-12-03T20:46:41.891Z,30.40
2022-12-03T20:49:09.233Z,30.33
2022-12-03T20:51:36.936Z,29.88
2022-12-03T20:54:04.309Z,28.13
2022-12-03T20:56:33.259Z,25.02
2022-12-03T20:59:05.159Z,26.80
2022-12-03T21:01:32.617Z,26.63
2022-12-03T21:03:59.908Z,28.30
2022-12-03T21:06:30.806Z,27.42
2022-12-03T21:08:58.901Z,20.77
2022-12-03T21:11:27.092Z,20.70
2022-12-03T21:13:55.199Z,24.23
2022-12-03T21:16:45.687Z,20.60
2022-12-03T21:19:11.249Z,18.63
2022-12-03T21:21:38.498Z,21.02
2022-12-03T21:24:05.884Z,21.63
2022-12-03T21:26:41.500Z,21.52
2022-12-03T21:29:09.149Z,19.58
2022-12-03T21:31:38.410Z,20.25
2022-12-03T21:34:05.666Z,23.90
2022-12-03T21:36:33.045Z,20.02
2022-12-03T21:39:00.432Z,21.27
2022-12-03T21:41:27.696Z,24.98
2022-12-03T21:43:54.971Z,21.52
2022-12-03T21:47:10.471Z,22.48
2022-12-03T21:49:09.568Z,24.27
2022-12-03T21:51:36.929Z,21.23
2022-12-03T21:54:04.221Z,21.98
2022-12-03T21:56:33.056Z,23.08
2022-12-03T21:59:00.327Z,23.98
2022-12-03T22:01:27.664Z,24.13
2022-12-03T22:03:55.160Z,24.15
2022-12-03T22:06:22.563Z,31.17
2022-12-03T22:08:50.156Z,22.60
2022-12-03T22:11:18.714Z,22.40
2022-12-03T22:13:46.094Z,22.38
2022-12-03T22:16:14.764Z,18.67
2022-12-03T22:18:42.293Z,21.27
2022-12-03T22:21:10.749Z,18.00
2022-12-03T22:23:38.493Z,23.02
2022-12-03T22:26:07.437Z,19.75
2022-12-03T22:28:35.441Z,17.42
2022-12-03T22:31:06.745Z,16.55
2022-12-03T22:33:34.319Z,20.45
2022-12-03T22:36:02.520Z,17.85
2022-12-03T22:38:30.627Z,20.95
2022-12-03T22:40:58.167Z,19.58
2022-12-03T22:43:25.453Z,21.08
2022-12-03T22:45:56.157Z,19.83
2022-12-03T22:48:24.125Z,18.83
2022-12-03T22:50:52.294Z,22.48
2022-12-03T22:53:19.817Z,19.45
2022-12-03T22:55:54.834Z,19.13
2022-12-03T22:58:22.280Z,19.52
2022-12-03T23:00:49.545Z,20.33
2022-12-03T23:03:16.803Z,20.45
2022-12-03T23:05:44.259Z,15.02
2022-12-03T23:08:13.394Z,19.15
2022-12-03T23:10:43.810Z,17.60
2022-12-03T23:13:11.487Z,18.55
2022-12-03T23:15:39.191Z,19.73
2022-12-03T23:18:06.569Z,16.67
2022-12-03T23:20:33.962Z,19.75
2022-12-03T23:23:01.203Z,20.05
2022-12-03T23:25:28.599Z,17.90
2022-12-03T23:27:55.832Z,18.92
2022-12-03T23:30:23.229Z,18.25
2022-12-03T23:32:50.438Z,18.00
2022-12-03T23:35:17.681Z,19.48
2022-12-03T23:37:44.908Z,19.30
2022-12-03T23:40:13.052Z,19.40
2022-12-03T23:42:40.264Z,18.50
2022-12-03T23:45:07.966Z,19.67
2022-12-03T23:47:35.273Z,17.58
2022-12-03T23:50:02.802Z,18.50
2022-12-03T23:52:30.082Z,15.70
2022-12-03T23:54:57.325Z,21.48
2022-12-03T23:57:24.528Z,16.67
2022-12-03T23:59:51.910Z,16.35
